Time;durP1;ratioP1;P1;durP2;ratioP2;P2;SDS_P1;SDS_P2;PMS_P1;PMS_P2;Temp;Humidity;BMP_temperature;BMP_pressure;BME280_temperature;BME280_humidity;BME280_pressure;Samples;Min_cycle;Max_cycle;Signal;HPM_P1;HPM_P2
2021/06/23 00:02:13;;;;;;;23.52;5.07;;;;;;;;;;5110115;27;20513;-68
2021/06/23 00:06:05;;;;;;;14.02;3.92;;;;;;;;;;5070079;28;20974;-67
2021/06/23 00:08:31;;;;;;;17.60;4.85;;;;;;;;;;5069717;28;20056;-68
2021/06/23 00:12:41;;;;;;;14.95;4.85;;;;;;;;;;5110394;27;20400;-68
2021/06/23 00:15:08;;;;;;;12.85;4.53;;;;;;;;;;5110069;28;20089;-68
2021/06/23 00:18:55;;;;;;;14.18;3.55;;;;;;;;;;5110395;27;20427;-67
2021/06/23 00:21:21;;;;;;;15.77;4.13;;;;;;;;;;5110492;28;20081;-68
2021/06/23 00:23:48;;;;;;;18.13;4.45;;;;;;;;;;5108689;28;20110;-68
2021/06/23 00:26:14;;;;;;;13.23;4.68;;;;;;;;;;5110493;28;20024;-68
2021/06/23 00:28:40;;;;;;;14.63;3.95;;;;;;;;;;5110462;28;20081;-68
2021/06/23 00:31:06;;;;;;;16.15;4.68;;;;;;;;;;5110129;28;20091;-68
2021/06/23 00:33:33;;;;;;;16.23;3.80;;;;;;;;;;5110260;28;20380;-68
2021/06/23 00:35:59;;;;;;;15.43;4.18;;;;;;;;;;5109716;28;20023;-68
2021/06/23 00:38:25;;;;;;;8.32;3.63;;;;;;;;;;5108702;28;20491;-68
2021/06/23 00:40:52;;;;;;;13.68;4.30;;;;;;;;;;5110020;28;20035;-68
2021/06/23 00:43:18;;;;;;;9.63;3.42;;;;;;;;;;5109625;28;20785;-68
2021/06/23 00:45:45;;;;;;;13.60;3.78;;;;;;;;;;5110080;28;20023;-68
2021/06/23 00:50:10;;;;;;;8.57;3.70;;;;;;;;;;5069683;28;20461;-68
2021/06/23 00:52:36;;;;;;;12.82;3.58;;;;;;;;;;5069704;28;20032;-68
2021/06/23 00:56:29;;;;;;;12.65;4.57;;;;;;;;;;5110502;27;20416;-68
2021/06/23 00:58:55;;;;;;;17.13;4.38;;;;;;;;;;5110129;28;20119;-68
2021/06/23 01:01:21;;;;;;;11.45;4.47;;;;;;;;;;5110363;28;20032;-68
2021/06/23 01:03:48;;;;;;;11.20;3.72;;;;;;;;;;5110372;28;20024;-68
2021/06/23 01:06:14;;;;;;;11.68;4.72;;;;;;;;;;5125808;28;20027;-68
2021/06/23 01:08:41;;;;;;;19.58;5.40;;;;;;;;;;5110433;28;20020;-68
2021/06/23 01:12:28;;;;;;;15.15;4.72;;;;;;;;;;5110723;27;20473;-68
2021/06/23 01:15:28;;;;;;;15.82;4.65;;;;;;;;;;5110474;27;20508;-67
2021/06/23 01:17:54;;;;;;;14.13;4.90;;;;;;;;;;5110497;28;20384;-68
2021/06/23 01:20:21;;;;;;;15.48;6.45;;;;;;;;;;5110074;28;20020;-68
2021/06/23 01:22:47;;;;;;;16.23;5.22;;;;;;;;;;5109094;28;20024;-68
2021/06/23 01:25:15;;;;;;;16.65;5.22;;;;;;;;;;5109969;28;20038;-68
2021/06/23 01:27:43;;;;;;;13.45;4.25;;;;;;;;;;5110508;28;20023;-68
2021/06/23 01:31:08;;;;;;;10.27;4.53;;;;;;;;;;5110560;27;20392;-69
2021/06/23 01:33:35;;;;;;;11.23;4.13;;;;;;;;;;5110018;28;20552;-68
2021/06/23 01:37:46;;;;;;;11.90;3.60;;;;;;;;;;5110384;27;20892;-68
2021/06/23 01:41:06;;;;;;;19.75;4.68;;;;;;;;;;5110074;27;20457;-67
2021/06/23 01:43:32;;;;;;;13.98;3.80;;;;;;;;;;5110375;28;20049;-68
2021/06/23 01:45:58;;;;;;;8.60;3.15;;;;;;;;;;5110603;28;20046;-68
2021/06/23 01:49:20;;;;;;;11.13;3.58;;;;;;;;;;5110575;27;20420;-68
2021/06/23 01:51:46;;;;;;;14.95;4.20;;;;;;;;;;5110709;28;20047;-68
2021/06/23 01:54:12;;;;;;;13.10;3.90;;;;;;;;;;5109969;28;20020;-68
2021/06/23 01:56:39;;;;;;;10.30;3.63;;;;;;;;;;5126100;28;20024;-68
2021/06/23 01:59:05;;;;;;;10.02;3.53;;;;;;;;;;5126085;28;20106;-68
2021/06/23 02:01:52;;;;;;;17.08;3.72;;;;;;;;;;5109875;28;20054;-68
2021/06/23 02:04:27;;;;;;;11.75;4.20;;;;;;;;;;5110233;28;20078;-68
2021/06/23 02:06:59;;;;;;;14.07;4.60;;;;;;;;;;5110309;28;20023;-68
2021/06/23 02:09:37;;;;;;;13.57;4.13;;;;;;;;;;5109685;28;20035;-68
2021/06/23 02:12:20;;;;;;;13.15;3.85;;;;;;;;;;5110088;28;20028;-68
2021/06/23 02:14:46;;;;;;;8.30;3.00;;;;;;;;;;5109669;28;20020;-68
2021/06/23 02:18:38;;;;;;;7.93;2.60;;;;;;;;;;5110459;27;20466;-67
2021/06/23 02:21:05;;;;;;;12.93;3.90;;;;;;;;;;5110466;28;20032;-68
2021/06/23 02:23:40;;;;;;;17.00;3.88;;;;;;;;;;5125888;28;20077;-67
2021/06/23 02:26:07;;;;;;;21.17;5.95;;;;;;;;;;5110606;28;20099;-67
2021/06/23 02:28:33;;;;;;;14.98;4.82;;;;;;;;;;5109822;28;20020;-68
2021/06/23 02:33:07;;;;;;;14.07;3.95;;;;;;;;;;5110408;27;20409;-67
2021/06/23 02:36:43;;;;;;;15.90;4.72;;;;;;;;;;5110050;27;20931;-68
2021/06/23 02:39:10;;;;;;;12.02;4.75;;;;;;;;;;5110431;28;20063;-67
2021/06/23 02:41:36;;;;;;;12.25;3.30;;;;;;;;;;5110355;28;20383;-68
2021/06/23 02:44:03;;;;;;;11.13;4.18;;;;;;;;;;5110132;28;20100;-68
2021/06/23 02:46:30;;;;;;;11.10;4.47;;;;;;;;;;5110424;28;20419;-68
2021/06/23 02:48:57;;;;;;;18.00;4.45;;;;;;;;;;5126133;28;20089;-68
2021/06/23 02:51:25;;;;;;;9.77;3.30;;;;;;;;;;5109851;28;20019;-68
2021/06/23 02:53:53;;;;;;;53.58;49.40;;;;;;;;;;5110101;28;20548;-68
2021/06/23 02:58:42;;;;;;;9.85;4.80;;;;;;;;;;5110147;27;20380;-68
2021/06/23 03:01:08;;;;;;;16.08;4.75;;;;;;;;;;5110483;28;20114;-68
2021/06/23 03:03:34;;;;;;;18.45;11.20;;;;;;;;;;5108716;28;20576;-68
2021/06/23 03:06:03;;;;;;;154.77;146.90;;;;;;;;;;5110624;28;20437;-68
2021/06/23 03:08:30;;;;;;;64.22;58.97;;;;;;;;;;5110446;28;20027;-67
2021/06/23 03:10:56;;;;;;;278.75;262.15;;;;;;;;;;5109930;28;20374;-68
2021/06/23 03:13:23;;;;;;;563.13;531.75;;;;;;;;;;5110243;28;20034;-68
2021/06/23 03:15:49;;;;;;;595.75;555.80;;;;;;;;;;5108858;28;20383;-67
2021/06/23 03:18:15;;;;;;;245.48;233.63;;;;;;;;;;5109632;28;20120;-67
2021/06/23 03:21:06;;;;;;;562.42;522.33;;;;;;;;;;5069980;28;20437;-67
2021/06/23 03:23:32;;;;;;;478.80;438.80;;;;;;;;;;5069868;28;20025;-68
2021/06/23 03:25:58;;;;;;;645.67;595.58;;;;;;;;;;5069601;28;20020;-68
2021/06/23 03:28:25;;;;;;;512.10;478.58;;;;;;;;;;5068630;28;20025;-68
2021/06/23 03:30:51;;;;;;;13.68;4.78;;;;;;;;;;5069793;28;20039;-68
2021/06/23 03:33:18;;;;;;;91.97;85.85;;;;;;;;;;5069263;28;20031;-68
2021/06/23 03:35:44;;;;;;;276.60;257.10;;;;;;;;;;5069684;28;20036;-68
2021/06/23 03:38:10;;;;;;;536.33;478.42;;;;;;;;;;5068641;28;20583;-68
2021/06/23 03:40:37;;;;;;;654.85;610.05;;;;;;;;;;5069012;28;20033;-68
2021/06/23 03:43:47;;;;;;;461.30;415.00;;;;;;;;;;5110411;27;20820;-68
2021/06/23 03:46:14;;;;;;;356.45;317.40;;;;;;;;;;5110198;28;20051;-68
2021/06/23 03:49:17;;;;;;;480.77;444.08;;;;;;;;;;5110583;27;20412;-68
2021/06/23 03:51:43;;;;;;;610.78;564.70;;;;;;;;;;5110365;28;20020;-67
2021/06/23 03:54:09;;;;;;;556.28;512.17;;;;;;;;;;5108588;28;20035;-68
2021/06/23 03:56:36;;;;;;;705.47;641.17;;;;;;;;;;5110242;28;20016;-68
2021/06/23 03:59:02;;;;;;;617.72;558.97;;;;;;;;;;5110226;28;20027;-68
2021/06/23 04:01:28;;;;;;;465.23;440.38;;;;;;;;;;5108402;28;20035;-68
2021/06/23 04:03:54;;;;;;;198.50;176.35;;;;;;;;;;5108861;28;20031;-68
2021/06/23 04:06:20;;;;;;;732.92;656.45;;;;;;;;;;5110236;28;20027;-68
2021/06/23 04:08:46;;;;;;;970.20;758.40;;;;;;;;;;5109858;28;20430;-68
2021/06/23 04:11:13;;;;;;;784.63;706.25;;;;;;;;;;5110012;28;20028;-68
2021/06/23 04:13:39;;;;;;;570.05;486.20;;;;;;;;;;5109981;28;20058;-68
2021/06/23 04:16:05;;;;;;;17.40;6.13;;;;;;;;;;5109597;28;20020;-68
2021/06/23 04:18:31;;;;;;;12.10;5.35;;;;;;;;;;5110104;28;20382;-68
2021/06/23 04:21:58;;;;;;;630.72;535.20;;;;;;;;;;5110049;27;20411;-68
2021/06/23 04:24:25;;;;;;;8.82;3.28;;;;;;;;;;5110414;28;20031;-68
2021/06/23 04:26:51;;;;;;;690.67;633.38;;;;;;;;;;5110545;28;20024;-68
2021/06/23 04:31:32;;;;;;;798.83;721.58;;;;;;;;;;5110430;27;20389;-68
2021/06/23 04:33:58;;;;;;;933.00;735.83;;;;;;;;;;5110420;28;20111;-68
2021/06/23 04:38:04;;;;;;;829.58;666.78;;;;;;;;;;5110457;27;20393;-69
2021/06/23 04:40:30;;;;;;;902.08;738.08;;;;;;;;;;5110387;28;20423;-69
2021/06/23 04:42:56;;;;;;;911.13;788.53;;;;;;;;;;5109965;28;20030;-69
2021/06/23 04:45:22;;;;;;;864.35;673.83;;;;;;;;;;5110323;28;20016;-69
2021/06/23 04:49:50;;;;;;;845.13;618.08;;;;;;;;;;5110168;27;20524;-68
2021/06/23 04:52:16;;;;;;;153.10;136.98;;;;;;;;;;5110473;28;20028;-68
2021/06/23 04:54:42;;;;;;;573.70;513.20;;;;;;;;;;5110332;28;20360;-68
2021/06/23 04:57:09;;;;;;;775.75;692.42;;;;;;;;;;5108594;28;20028;-68
2021/06/23 04:59:35;;;;;;;782.65;697.70;;;;;;;;;;5110230;28;20054;-68
2021/06/23 05:02:47;;;;;;;835.08;685.58;;;;;;;;;;5110225;27;20858;-67
2021/06/23 05:05:14;;;;;;;817.90;730.42;;;;;;;;;;5089668;28;20028;-66
2021/06/23 05:07:40;;;;;;;588.85;483.60;;;;;;;;;;5090066;28;20028;-66
2021/06/23 05:10:06;;;;;;;1058.97;827.00;;;;;;;;;;5088690;28;20020;-67
2021/06/23 05:12:32;;;;;;;977.78;875.60;;;;;;;;;;5090381;28;20426;-67
2021/06/23 05:14:59;;;;;;;812.17;576.35;;;;;;;;;;5087339;28;20095;-65
2021/06/23 05:17:25;;;;;;;531.22;492.00;;;;;;;;;;5088878;28;20069;-65
2021/06/23 05:19:52;;;;;;;762.00;631.38;;;;;;;;;;5089143;28;20380;-66
2021/06/23 05:22:18;;;;;;;873.78;669.03;;;;;;;;;;5087808;28;20082;-66
2021/06/23 05:24:45;;;;;;;975.53;705.45;;;;;;;;;;5087285;28;20376;-66
2021/06/23 05:27:12;;;;;;;1064.82;770.15;;;;;;;;;;5086605;28;20032;-67
2021/06/23 05:29:38;;;;;;;14.90;5.68;;;;;;;;;;5102339;28;20803;-67
2021/06/23 05:34:05;;;;;;;12.45;4.53;;;;;;;;;;5150946;27;20406;-67
2021/06/23 05:36:32;;;;;;;18.05;5.70;;;;;;;;;;5131741;27;20019;-66
2021/06/23 05:38:58;;;;;;;16.67;5.40;;;;;;;;;;5150291;27;20098;-67
2021/06/23 05:41:24;;;;;;;15.15;5.60;;;;;;;;;;5150973;27;20045;-67
2021/06/23 05:43:50;;;;;;;11.35;4.50;;;;;;;;;;5150637;27;20106;-67
2021/06/23 05:46:16;;;;;;;13.48;5.25;;;;;;;;;;5131247;27;20141;-67
2021/06/23 05:48:43;;;;;;;15.60;4.47;;;;;;;;;;5151361;27;20026;-67
2021/06/23 05:51:09;;;;;;;20.88;7.22;;;;;;;;;;5151172;27;20379;-68
2021/06/23 05:53:35;;;;;;;13.75;5.15;;;;;;;;;;5149231;27;20059;-69
2021/06/23 05:56:01;;;;;;;12.45;5.13;;;;;;;;;;5150216;27;20447;-67
2021/06/23 05:58:28;;;;;;;11.95;5.45;;;;;;;;;;5148950;27;20053;-68
2021/06/23 06:00:54;;;;;;;20.83;6.20;;;;;;;;;;5150104;27;20015;-68
2021/06/23 06:03:20;;;;;;;12.77;5.45;;;;;;;;;;5149969;27;20583;-68
2021/06/23 06:05:47;;;;;;;12.18;5.10;;;;;;;;;;5150600;27;20169;-70
2021/06/23 06:08:13;;;;;;;13.10;5.50;;;;;;;;;;5150256;27;20027;-69
2021/06/23 06:10:39;;;;;;;14.68;5.50;;;;;;;;;;5150236;27;20467;-67
2021/06/23 06:13:06;;;;;;;15.45;5.10;;;;;;;;;;5130774;27;20087;-66
2021/06/23 06:15:33;;;;;;;10.90;5.00;;;;;;;;;;5149831;27;20023;-69
2021/06/23 06:18:24;;;;;;;16.85;5.93;;;;;;;;;;5069224;28;20395;-66
2021/06/23 06:20:53;;;;;;;15.05;5.00;;;;;;;;;;5069443;28;20064;-66
2021/06/23 06:23:19;;;;;;;18.20;5.43;;;;;;;;;;5068830;28;20047;-67
2021/06/23 06:25:45;;;;;;;14.15;5.57;;;;;;;;;;5069338;28;20107;-68
2021/06/23 06:28:11;;;;;;;12.02;5.18;;;;;;;;;;5061675;28;20127;-67
2021/06/23 06:30:37;;;;;;;13.05;5.65;;;;;;;;;;5067201;28;20052;-67
2021/06/23 06:33:04;;;;;;;16.83;6.57;;;;;;;;;;5068363;28;20024;-68
2021/06/23 06:35:30;;;;;;;13.52;6.30;;;;;;;;;;5068788;28;20017;-67
2021/06/23 06:37:56;;;;;;;17.20;5.40;;;;;;;;;;5067211;28;20033;-68
2021/06/23 06:40:23;;;;;;;14.95;4.93;;;;;;;;;;5067989;28;20028;-68
2021/06/23 06:42:50;;;;;;;11.57;4.72;;;;;;;;;;5066567;28;20033;-68
2021/06/23 06:45:16;;;;;;;15.50;5.90;;;;;;;;;;5069136;28;20025;-69
2021/06/23 06:47:42;;;;;;;14.35;5.57;;;;;;;;;;5067626;28;20571;-68
2021/06/23 06:50:08;;;;;;;10.98;4.88;;;;;;;;;;5068511;28;20025;-67
2021/06/23 06:52:35;;;;;;;14.13;4.97;;;;;;;;;;5068265;28;20052;-68
2021/06/23 06:55:01;;;;;;;15.55;6.55;;;;;;;;;;5066038;28;20093;-68
2021/06/23 06:57:27;;;;;;;18.55;6.68;;;;;;;;;;5068086;28;20087;-69
2021/06/23 06:59:54;;;;;;;26.90;7.10;;;;;;;;;;5068535;28;20534;-70
2021/06/23 07:02:20;;;;;;;20.10;5.50;;;;;;;;;;5068843;28;20389;-68
2021/06/23 07:04:46;;;;;;;15.82;5.75;;;;;;;;;;5068268;28;20096;-68
2021/06/23 07:07:13;;;;;;;19.85;6.75;;;;;;;;;;5065575;28;20035;-68
2021/06/23 07:09:39;;;;;;;16.58;6.35;;;;;;;;;;5067876;28;20031;-68
2021/06/23 07:12:05;;;;;;;18.85;5.72;;;;;;;;;;5067472;28;20020;-70
2021/06/23 07:14:31;;;;;;;16.88;7.03;;;;;;;;;;5065398;28;20079;-69
2021/06/23 07:16:57;;;;;;;16.13;6.10;;;;;;;;;;5065733;28;20051;-69
2021/06/23 07:19:24;;;;;;;24.90;6.72;;;;;;;;;;5067210;28;20067;-68
2021/06/23 07:21:50;;;;;;;14.85;5.75;;;;;;;;;;5067368;28;20025;-68
2021/06/23 07:24:17;;;;;;;14.98;5.57;;;;;;;;;;5067091;28;20101;-68
2021/06/23 07:26:45;;;;;;;18.40;5.63;;;;;;;;;;5065808;28;20025;-68
2021/06/23 07:29:12;;;;;;;11.38;5.22;;;;;;;;;;5054467;28;20115;-69
2021/06/23 07:31:44;;;;;;;23.77;7.80;;;;;;;;;;5052660;28;20100;-68
2021/06/23 07:36:46;;;;;;;17.70;5.88;;;;;;;;;;5037202;28;20083;-67
2021/06/23 07:39:14;;;;;;;23.20;7.43;;;;;;;;;;5040649;28;20026;-67
2021/06/23 07:41:42;;;;;;;16.85;5.13;;;;;;;;;;5026666;28;20104;-67
2021/06/23 07:44:10;;;;;;;21.23;5.72;;;;;;;;;;5035655;28;20033;-67
2021/06/23 07:46:40;;;;;;;25.42;5.78;;;;;;;;;;5052392;28;20025;-67
2021/06/23 07:49:12;;;;;;;17.17;5.68;;;;;;;;;;5053182;28;20021;-67
2021/06/23 07:51:45;;;;;;;27.63;7.30;;;;;;;;;;5049959;28;20020;-67
2021/06/23 07:54:20;;;;;;;19.55;6.00;;;;;;;;;;5041974;28;20024;-68
2021/06/23 08:10:18;;;;;;;16.10;4.95;;;;;;;;;;5050924;28;20060;-70
2021/06/23 08:12:51;;;;;;;17.70;4.63;;;;;;;;;;5047239;28;20036;-70
2021/06/23 08:15:18;;;;;;;29.30;5.85;;;;;;;;;;5047967;28;20021;-69
2021/06/23 08:17:44;;;;;;;28.77;6.32;;;;;;;;;;5051265;28;20049;-71
2021/06/23 08:20:10;;;;;;;14.07;5.22;;;;;;;;;;5052187;28;20017;-71
2021/06/23 08:22:37;;;;;;;14.25;3.95;;;;;;;;;;5051786;28;20485;-70
2021/06/23 08:25:04;;;;;;;22.65;5.10;;;;;;;;;;5051179;28;20162;-68
2021/06/23 08:27:30;;;;;;;33.60;6.43;;;;;;;;;;5051116;28;20057;-68
2021/06/23 08:29:56;;;;;;;23.83;5.43;;;;;;;;;;5049545;28;20021;-71
2021/06/23 08:32:22;;;;;;;14.55;4.70;;;;;;;;;;5045584;28;20037;-68
2021/06/23 08:34:48;;;;;;;19.92;5.82;;;;;;;;;;5044915;28;20051;-68
2021/06/23 08:37:15;;;;;;;23.52;5.47;;;;;;;;;;5040595;28;20040;-67
2021/06/23 08:39:41;;;;;;;28.58;6.18;;;;;;;;;;5048477;28;20116;-70
2021/06/23 08:42:08;;;;;;;18.90;5.13;;;;;;;;;;5050052;28;20032;-69
2021/06/23 08:44:35;;;;;;;22.17;5.85;;;;;;;;;;5051009;28;20021;-69
2021/06/23 08:47:01;;;;;;;21.25;5.38;;;;;;;;;;5049801;28;20741;-66
2021/06/23 08:49:28;;;;;;;19.48;4.03;;;;;;;;;;5051663;28;20090;-68
2021/06/23 08:51:55;;;;;;;27.15;5.95;;;;;;;;;;5049625;28;20021;-66
2021/06/23 08:54:22;;;;;;;21.95;4.45;;;;;;;;;;5050852;28;20218;-67
2021/06/23 08:56:49;;;;;;;22.10;4.93;;;;;;;;;;5050474;28;20104;-66
2021/06/23 08:59:15;;;;;;;15.95;4.18;;;;;;;;;;5045137;28;20472;-67
2021/06/23 09:01:43;;;;;;;19.58;5.55;;;;;;;;;;5048602;28;20114;-68
2021/06/23 09:04:10;;;;;;;22.58;4.85;;;;;;;;;;5048542;28;20036;-68
2021/06/23 09:06:53;;;;;;;15.02;4.50;;;;;;;;;;5047774;28;20044;-68
2021/06/23 09:09:21;;;;;;;28.77;5.35;;;;;;;;;;5043681;28;20583;-68
2021/06/23 09:11:48;;;;;;;24.88;5.68;;;;;;;;;;5045440;28;20381;-69
2021/06/23 09:14:15;;;;;;;17.40;4.00;;;;;;;;;;5048576;28;20108;-70
2021/06/23 09:17:04;;;;;;;29.25;4.68;;;;;;;;;;5050807;28;20049;-69
2021/06/23 09:19:30;;;;;;;16.60;4.85;;;;;;;;;;5049457;28;20029;-69
2021/06/23 09:21:57;;;;;;;18.35;5.63;;;;;;;;;;5048992;28;20028;-69
2021/06/23 09:24:37;;;;;;;12.88;4.07;;;;;;;;;;5048877;28;20079;-69
2021/06/23 09:27:23;;;;;;;19.52;4.18;;;;;;;;;;5050043;28;20570;-69
2021/06/23 09:29:52;;;;;;;20.20;4.88;;;;;;;;;;5050529;28;20024;-69
2021/06/23 09:32:19;;;;;;;15.50;4.30;;;;;;;;;;5049571;28;20549;-68
2021/06/23 09:34:47;;;;;;;18.48;4.47;;;;;;;;;;5050979;28;20052;-68
2021/06/23 09:37:33;;;;;;;22.10;4.57;;;;;;;;;;5051910;28;20044;-72
2021/06/23 09:40:13;;;;;;;16.98;5.00;;;;;;;;;;5050657;28;20028;-68
2021/06/23 09:42:50;;;;;;;26.38;5.53;;;;;;;;;;5049443;28;20025;-68
2021/06/23 09:45:18;;;;;;;18.80;6.10;;;;;;;;;;5051476;28;20017;-68
2021/06/23 09:47:46;;;;;;;17.95;4.47;;;;;;;;;;5051443;28;20600;-68
2021/06/23 09:50:19;;;;;;;15.35;5.68;;;;;;;;;;5050967;28;20066;-68
2021/06/23 09:52:56;;;;;;;22.00;4.95;;;;;;;;;;5050750;28;20028;-68
2021/06/23 09:55:42;;;;;;;21.63;5.45;;;;;;;;;;5050744;28;20025;-68
2021/06/23 09:58:09;;;;;;;22.30;5.25;;;;;;;;;;5049179;28;20743;-68
2021/06/23 10:00:56;;;;;;;18.25;4.55;;;;;;;;;;5050623;28;20366;-69
2021/06/23 10:03:22;;;;;;;21.13;6.55;;;;;;;;;;5051141;28;20032;-69
2021/06/23 10:05:49;;;;;;;14.02;4.00;;;;;;;;;;5051219;28;20604;-69
2021/06/23 10:08:41;;;;;;;16.20;4.38;;;;;;;;;;5051766;28;20063;-69
2021/06/23 10:11:07;;;;;;;;;;;;;;;;;;5052271;28;20065;-68
2021/06/23 10:13:33;;;;;;;19.50;5.32;;;;;;;;;;5050282;28;19970;-68
2021/06/23 10:16:00;;;;;;;22.50;6.13;;;;;;;;;;5045552;28;20033;-68
2021/06/23 10:18:27;;;;;;;17.30;4.28;;;;;;;;;;5049312;28;20068;-67
2021/06/23 10:20:54;;;;;;;18.17;4.82;;;;;;;;;;5040157;28;20036;-68
2021/06/23 10:23:20;;;;;;;25.38;4.72;;;;;;;;;;5049957;28;20104;-68
2021/06/23 10:25:47;;;;;;;14.02;4.20;;;;;;;;;;5048975;28;20047;-68
2021/06/23 10:28:17;;;;;;;21.20;5.45;;;;;;;;;;5049576;28;20033;-70
2021/06/23 10:30:43;;;;;;;21.00;5.00;;;;;;;;;;5050606;28;20021;-69
2021/06/23 10:33:09;;;;;;;18.92;4.15;;;;;;;;;;5050742;28;20025;-66
2021/06/23 10:35:36;;;;;;;25.02;5.38;;;;;;;;;;5050393;28;20051;-67
2021/06/23 10:38:04;;;;;;;19.27;5.47;;;;;;;;;;5049153;28;20029;-69
2021/06/23 10:40:30;;;;;;;15.95;3.83;;;;;;;;;;5051314;28;20021;-72
2021/06/23 10:43:11;;;;;;;22.00;5.03;;;;;;;;;;5050335;28;20029;-71
2021/06/23 10:45:41;;;;;;;17.58;4.97;;;;;;;;;;5051178;28;20118;-70
2021/06/23 10:48:08;;;;;;;18.20;4.68;;;;;;;;;;5050938;28;20075;-70
2021/06/23 10:50:35;;;;;;;12.77;4.05;;;;;;;;;;5051661;28;20469;-70
2021/06/23 10:53:03;;;;;;;18.52;4.50;;;;;;;;;;5050509;28;20076;-71
2021/06/23 10:55:29;;;;;;;14.55;4.25;;;;;;;;;;5051540;28;20032;-71
2021/06/23 10:57:57;;;;;;;17.83;5.00;;;;;;;;;;5050491;28;20497;-71
2021/06/23 11:00:31;;;;;;;21.35;5.60;;;;;;;;;;5051698;28;20052;-71
2021/06/23 11:03:01;;;;;;;25.25;4.80;;;;;;;;;;5051558;28;20078;-71
2021/06/23 11:05:35;;;;;;;25.38;4.95;;;;;;;;;;5054417;28;20111;-71
2021/06/23 11:08:02;;;;;;;16.55;4.57;;;;;;;;;;5055660;28;20025;-71
2021/06/23 11:10:36;;;;;;;18.65;4.88;;;;;;;;;;5054128;28;20094;-71
2021/06/23 11:13:04;;;;;;;22.42;5.30;;;;;;;;;;5055582;28;20366;-71
2021/06/23 11:15:33;;;;;;;21.45;4.47;;;;;;;;;;5055369;28;20028;-71
2021/06/23 11:18:18;;;;;;;15.13;3.97;;;;;;;;;;5054824;28;20048;-71
2021/06/23 11:20:49;;;;;;;15.60;4.07;;;;;;;;;;5055345;28;20021;-71
2021/06/23 11:23:54;;;;;;;16.30;4.45;;;;;;;;;;5055082;28;20056;-70
2021/06/23 11:26:21;;;;;;;15.95;4.43;;;;;;;;;;5033163;28;20045;-71
2021/06/23 11:28:48;;;;;;;19.83;3.63;;;;;;;;;;5033141;28;20095;-71
2021/06/23 11:31:14;;;;;;;20.98;3.75;;;;;;;;;;5038241;28;20030;-71
2021/06/23 11:33:42;;;;;;;11.25;2.72;;;;;;;;;;5053632;28;20025;-71
2021/06/23 11:36:09;;;;;;;19.83;3.63;;;;;;;;;;5054956;28;20039;-71
2021/06/23 11:38:37;;;;;;;12.27;3.35;;;;;;;;;;5054528;28;20032;-71
2021/06/23 11:41:04;;;;;;;17.92;3.90;;;;;;;;;;5054996;28;20013;-71
2021/06/23 11:43:30;;;;;;;15.55;4.35;;;;;;;;;;5054879;28;20025;-71
2021/06/23 11:45:57;;;;;;;22.17;3.95;;;;;;;;;;5054489;28;20064;-71
2021/06/23 11:48:26;;;;;;;16.38;5.20;;;;;;;;;;5055021;28;20021;-71
2021/06/23 11:50:54;;;;;;;18.92;4.32;;;;;;;;;;5054759;28;20025;-71
2021/06/23 11:53:20;;;;;;;10.95;3.25;;;;;;;;;;5054493;28;20068;-71
2021/06/23 11:55:48;;;;;;;16.35;3.67;;;;;;;;;;5053362;28;20170;-71
2021/06/23 11:58:14;;;;;;;17.42;3.45;;;;;;;;;;5054460;28;20501;-71
2021/06/23 12:00:41;;;;;;;11.07;3.25;;;;;;;;;;5054566;28;20071;-71
2021/06/23 12:03:08;;;;;;;16.10;3.75;;;;;;;;;;5054512;28;20032;-71
2021/06/23 12:05:35;;;;;;;16.98;3.40;;;;;;;;;;5053976;28;20021;-71
2021/06/23 12:08:01;;;;;;;10.75;2.97;;;;;;;;;;5054499;28;20075;-71
2021/06/23 12:10:29;;;;;;;20.13;4.22;;;;;;;;;;5054056;28;20028;-71
2021/06/23 12:12:56;;;;;;;16.20;4.80;;;;;;;;;;5054009;28;20032;-71
2021/06/23 12:15:23;;;;;;;17.13;3.38;;;;;;;;;;5054073;28;20092;-71
2021/06/23 12:17:51;;;;;;;15.00;2.78;;;;;;;;;;5054062;28;20553;-71
2021/06/23 12:20:18;;;;;;;11.02;3.05;;;;;;;;;;5054132;28;20096;-71
2021/06/23 12:22:44;;;;;;;15.02;3.33;;;;;;;;;;5052843;28;20025;-71
2021/06/23 12:25:11;;;;;;;9.00;2.33;;;;;;;;;;5054370;28;20377;-71
2021/06/23 12:27:38;;;;;;;15.93;3.10;;;;;;;;;;5053830;28;20025;-72
2021/06/23 12:30:05;;;;;;;15.88;3.25;;;;;;;;;;5054170;28;20539;-72
2021/06/23 12:32:32;;;;;;;12.82;3.22;;;;;;;;;;5054140;28;20041;-72
2021/06/23 12:35:00;;;;;;;14.57;4.57;;;;;;;;;;5052330;28;20017;-71
2021/06/23 12:37:26;;;;;;;12.35;2.50;;;;;;;;;;5054023;28;20493;-72
2021/06/23 12:39:52;;;;;;;13.15;3.03;;;;;;;;;;5053995;28;20389;-72
2021/06/23 12:42:19;;;;;;;16.63;3.25;;;;;;;;;;5052153;28;20052;-71
2021/06/23 12:44:45;;;;;;;12.93;2.85;;;;;;;;;;5052638;28;20111;-71
2021/06/23 12:47:12;;;;;;;12.20;2.95;;;;;;;;;;5052612;28;20029;-72
2021/06/23 12:49:38;;;;;;;17.33;3.20;;;;;;;;;;5053361;28;20100;-72
2021/06/23 12:52:05;;;;;;;15.10;3.80;;;;;;;;;;5052442;28;20037;-72
2021/06/23 12:54:31;;;;;;;14.70;3.47;;;;;;;;;;5053420;28;20059;-72
2021/06/23 12:56:57;;;;;;;11.57;2.88;;;;;;;;;;5053595;28;20025;-72
2021/06/23 12:59:29;;;;;;;11.35;2.60;;;;;;;;;;5053485;28;20047;-72
2021/06/23 13:01:55;;;;;;;11.93;3.22;;;;;;;;;;5053621;28;20021;-72
2021/06/23 13:04:21;;;;;;;12.18;3.03;;;;;;;;;;5053221;28;20565;-72
2021/06/23 13:06:47;;;;;;;10.65;2.83;;;;;;;;;;5053650;28;20067;-71
2021/06/23 13:09:14;;;;;;;11.07;2.72;;;;;;;;;;5051723;28;20028;-71
2021/06/23 13:11:40;;;;;;;15.07;3.45;;;;;;;;;;5053474;28;20071;-71
2021/06/23 13:14:07;;;;;;;12.07;2.72;;;;;;;;;;5053259;28;20421;-71
2021/06/23 13:16:33;;;;;;;21.67;4.13;;;;;;;;;;5052724;28;20065;-71
2021/06/23 13:18:59;;;;;;;12.73;3.10;;;;;;;;;;5053376;28;20373;-71
2021/06/23 13:21:26;;;;;;;19.60;3.75;;;;;;;;;;5053290;28;20052;-71
2021/06/23 13:23:52;;;;;;;11.02;2.58;;;;;;;;;;5052926;28;20032;-71
2021/06/23 13:26:19;;;;;;;16.23;3.83;;;;;;;;;;5052888;28;20017;-72
2021/06/23 13:28:45;;;;;;;21.60;4.25;;;;;;;;;;5053051;28;20599;-71
2021/06/23 13:31:12;;;;;;;13.65;3.33;;;;;;;;;;5052681;28;20029;-71
2021/06/23 13:33:38;;;;;;;14.32;3.53;;;;;;;;;;5051796;28;20056;-71
2021/06/23 13:36:04;;;;;;;20.73;3.47;;;;;;;;;;5051727;28;20036;-71
2021/06/23 13:38:31;;;;;;;13.15;3.75;;;;;;;;;;5052486;28;20033;-72
2021/06/23 13:40:58;;;;;;;11.48;3.58;;;;;;;;;;5052842;28;20139;-72
2021/06/23 13:43:26;;;;;;;20.60;5.32;;;;;;;;;;5052788;28;20549;-72
2021/06/23 13:45:52;;;;;;;11.32;3.53;;;;;;;;;;5052694;28;20036;-72
2021/06/23 13:48:19;;;;;;;17.55;4.28;;;;;;;;;;5052925;28;20043;-71
2021/06/23 13:50:46;;;;;;;18.40;4.15;;;;;;;;;;5052634;28;20067;-70
2021/06/23 13:53:13;;;;;;;16.27;3.85;;;;;;;;;;5052627;28;20033;-71
2021/06/23 13:55:40;;;;;;;12.93;4.00;;;;;;;;;;5051384;28;20043;-71
2021/06/23 13:58:07;;;;;;;16.88;4.45;;;;;;;;;;5052153;28;20033;-70
2021/06/23 14:00:35;;;;;;;15.48;3.70;;;;;;;;;;5052618;28;20109;-71
2021/06/23 14:03:01;;;;;;;16.98;4.22;;;;;;;;;;5051265;28;20035;-71
2021/06/23 14:05:28;;;;;;;18.73;4.03;;;;;;;;;;5052206;28;20414;-70
2021/06/23 14:07:54;;;;;;;14.40;3.55;;;;;;;;;;5052693;28;20025;-70
2021/06/23 14:10:21;;;;;;;20.50;3.70;;;;;;;;;;5052463;28;20021;-70
2021/06/23 14:12:47;;;;;;;19.15;5.00;;;;;;;;;;5052046;28;20100;-70
2021/06/23 14:15:14;;;;;;;14.65;4.47;;;;;;;;;;5052450;28;20036;-70
2021/06/23 14:17:40;;;;;;;14.13;3.88;;;;;;;;;;5050893;28;20052;-69
2021/06/23 14:20:07;;;;;;;21.45;4.18;;;;;;;;;;5052063;28;20355;-70
2021/06/23 14:22:35;;;;;;;18.23;4.47;;;;;;;;;;5052415;28;20481;-69
2021/06/23 14:25:01;;;;;;;21.10;3.55;;;;;;;;;;5052476;28;20025;-70
2021/06/23 14:27:29;;;;;;;13.70;3.95;;;;;;;;;;5052225;28;20029;-69
2021/06/23 14:29:55;;;;;;;15.60;3.63;;;;;;;;;;5052360;28;20082;-70
2021/06/23 14:32:22;;;;;;;14.68;3.38;;;;;;;;;;5052294;28;20497;-70
2021/06/23 14:34:48;;;;;;;25.35;4.97;;;;;;;;;;5051877;28;20021;-70
2021/06/23 14:37:14;;;;;;;22.60;3.67;;;;;;;;;;5052092;28;20029;-70
2021/06/23 14:39:40;;;;;;;13.45;4.22;;;;;;;;;;5054068;28;20079;-70
2021/06/23 14:42:07;;;;;;;16.17;3.92;;;;;;;;;;5055862;28;20555;-69
2021/06/23 14:44:33;;;;;;;12.10;3.05;;;;;;;;;;5055030;28;20055;-70
2021/06/23 14:46:59;;;;;;;18.52;4.07;;;;;;;;;;5056287;28;20388;-72
2021/06/23 14:49:25;;;;;;;13.95;3.50;;;;;;;;;;5054585;28;20021;-71
2021/06/23 14:51:52;;;;;;;16.45;4.80;;;;;;;;;;5055966;28;20100;-70
2021/06/23 14:54:18;;;;;;;18.92;4.90;;;;;;;;;;5055550;28;20033;-70
2021/06/23 14:56:44;;;;;;;14.07;4.18;;;;;;;;;;5055822;28;20040;-69
2021/06/23 14:59:10;;;;;;;12.25;3.88;;;;;;;;;;5055958;28;20032;-70
2021/06/23 15:01:38;;;;;;;15.40;3.80;;;;;;;;;;5055438;28;20500;-70
2021/06/23 15:04:04;;;;;;;13.43;3.60;;;;;;;;;;5054556;28;20032;-70
2021/06/23 15:06:31;;;;;;;12.63;3.15;;;;;;;;;;5055898;28;20021;-70
2021/06/23 15:08:57;;;;;;;15.90;4.07;;;;;;;;;;5055354;28;20025;-70
2021/06/23 15:11:23;;;;;;;18.40;3.95;;;;;;;;;;5054466;28;20704;-70
2021/06/23 15:13:50;;;;;;;13.65;3.85;;;;;;;;;;5055537;28;20053;-70
2021/06/23 15:16:18;;;;;;;15.90;4.13;;;;;;;;;;5054934;28;20037;-69
2021/06/23 15:18:44;;;;;;;16.88;4.30;;;;;;;;;;5054146;28;20029;-69